Time;durP1;ratioP1;P1;durP2;ratioP2;P2;SDS_P1;SDS_P2;PMS_P1;PMS_P2;Temp;Humidity;BMP_temperature;BMP_pressure;BME280_temperature;BME280_humidity;BME280_pressure;Samples;Min_cycle;Max_cycle;Signal;HPM_P1;HPM_P2
2024/01/19 00:02:17;;;;;;;9.50;4.80;;;;;;;;;;5074965;28;20215;-79
2024/01/19 00:04:43;;;;;;;5.97;4.17;;;;;;;;;;5081639;28;20213;-77
2024/01/19 00:07:09;;;;;;;9.30;4.90;;;;;;;;;;5081932;28;20854;-78
2024/01/19 00:09:35;;;;;;;8.67;4.57;;;;;;;;;;5074629;28;20204;-78
2024/01/19 00:12:01;;;;;;;11.50;4.87;;;;;;;;;;5084532;28;20237;-79
2024/01/19 00:14:28;;;;;;;6.90;4.43;;;;;;;;;;5081566;28;20221;-77
2024/01/19 00:16:54;;;;;;;9.37;4.60;;;;;;;;;;5082925;28;20223;-79
2024/01/19 00:19:20;;;;;;;8.77;4.93;;;;;;;;;;5068382;28;20221;-80
2024/01/19 00:21:46;;;;;;;8.90;4.60;;;;;;;;;;5075478;28;20210;-80
2024/01/19 00:24:13;;;;;;;5.10;3.60;;;;;;;;;;5086268;28;20219;-78
2024/01/19 00:26:39;;;;;;;7.70;3.70;;;;;;;;;;5075877;28;20234;-79
2024/01/19 00:29:06;;;;;;;7.43;4.07;;;;;;;;;;5063112;28;20311;-80
2024/01/19 00:31:32;;;;;;;9.10;4.97;;;;;;;;;;5078041;28;20205;-79
2024/01/19 00:33:58;;;;;;;9.47;4.47;;;;;;;;;;5057679;28;20218;-80
2024/01/19 00:36:24;;;;;;;7.93;3.87;;;;;;;;;;5078976;28;20184;-79
2024/01/19 00:38:52;;;;;;;7.97;4.40;;;;;;;;;;5080874;28;20192;-80
2024/01/19 00:41:18;;;;;;;8.50;3.90;;;;;;;;;;5070473;28;20221;-78
2024/01/19 00:43:44;;;;;;;5.60;3.57;;;;;;;;;;5069956;28;20235;-79
2024/01/19 00:46:10;;;;;;;7.40;4.03;;;;;;;;;;5064533;28;20240;-79
2024/01/19 00:48:36;;;;;;;9.83;4.60;;;;;;;;;;5068938;28;20214;-80
2024/01/19 00:51:02;;;;;;;9.07;4.73;;;;;;;;;;5070646;28;20262;-79
2024/01/19 00:53:29;;;;;;;9.37;4.77;;;;;;;;;;5070837;28;20265;-79
2024/01/19 00:55:55;;;;;;;13.03;5.07;;;;;;;;;;5066371;28;20206;-79
2024/01/19 00:58:21;;;;;;;7.07;4.17;;;;;;;;;;5070011;28;20630;-79
2024/01/19 01:00:47;;;;;;;8.47;3.77;;;;;;;;;;5069828;28;20218;-79
2024/01/19 01:03:21;;;;;;;8.70;4.63;;;;;;;;;;5070009;28;20563;-79
2024/01/19 01:05:47;;;;;;;9.57;4.73;;;;;;;;;;5069003;28;20288;-79
2024/01/19 01:08:13;;;;;;;6.70;4.13;;;;;;;;;;5087261;28;20227;-79
2024/01/19 01:10:39;;;;;;;8.10;5.00;;;;;;;;;;5073133;28;20260;-79
2024/01/19 01:13:05;;;;;;;11.33;4.87;;;;;;;;;;5075383;28;20209;-79
2024/01/19 01:15:31;;;;;;;7.57;4.43;;;;;;;;;;5062079;28;20212;-79
2024/01/19 01:17:57;;;;;;;10.97;5.50;;;;;;;;;;5074793;28;20180;-79
2024/01/19 01:20:23;;;;;;;10.30;4.83;;;;;;;;;;5071657;28;20193;-79
2024/01/19 01:22:49;;;;;;;11.87;4.90;;;;;;;;;;5091624;28;20224;-78
2024/01/19 01:25:15;;;;;;;12.40;5.17;;;;;;;;;;5068701;28;20237;-78
2024/01/19 01:27:41;;;;;;;9.83;4.40;;;;;;;;;;5090694;28;20221;-79
2024/01/19 01:30:08;;;;;;;9.77;4.67;;;;;;;;;;5058440;28;20315;-79
2024/01/19 01:32:34;;;;;;;12.07;5.50;;;;;;;;;;5073016;28;20219;-77
2024/01/19 01:35:01;;;;;;;9.80;4.80;;;;;;;;;;5061583;28;20200;-78
2024/01/19 01:37:27;;;;;;;6.43;3.53;;;;;;;;;;5063743;28;20209;-79
2024/01/19 01:39:53;;;;;;;8.87;5.17;;;;;;;;;;5065361;28;21080;-79
2024/01/19 01:42:19;;;;;;;7.37;4.77;;;;;;;;;;5063726;28;20203;-80
2024/01/19 01:44:45;;;;;;;8.93;4.47;;;;;;;;;;5068724;28;20277;-79
2024/01/19 01:47:11;;;;;;;9.50;4.70;;;;;;;;;;5062323;28;20248;-79
2024/01/19 01:49:37;;;;;;;11.10;4.67;;;;;;;;;;5069251;28;20629;-77
2024/01/19 01:52:03;;;;;;;9.20;4.60;;;;;;;;;;5057053;28;20257;-79
2024/01/19 01:54:30;;;;;;;10.97;4.80;;;;;;;;;;5067719;28;20208;-78
2024/01/19 01:56:56;;;;;;;9.50;4.17;;;;;;;;;;5071105;28;20184;-78
2024/01/19 01:59:23;;;;;;;7.93;4.87;;;;;;;;;;5085301;28;20473;-78
2024/01/19 02:01:49;;;;;;;8.43;4.83;;;;;;;;;;5069828;28;20277;-78
2024/01/19 02:04:15;;;;;;;9.47;4.47;;;;;;;;;;5074183;28;20221;-79
2024/01/19 02:06:41;;;;;;;8.00;3.77;;;;;;;;;;5075227;28;20208;-79
2024/01/19 02:09:08;;;;;;;5.97;3.73;;;;;;;;;;5078935;28;20186;-80
2024/01/19 02:11:35;;;;;;;13.23;4.57;;;;;;;;;;5077730;28;20208;-79
2024/01/19 02:14:05;;;;;;;5.23;3.73;;;;;;;;;;5077952;28;20213;-80
2024/01/19 02:16:31;;;;;;;7.50;4.63;;;;;;;;;;5069983;28;20216;-79
2024/01/19 02:18:57;;;;;;;8.13;4.57;;;;;;;;;;5068667;28;20217;-79
2024/01/19 02:21:23;;;;;;;7.63;4.63;;;;;;;;;;5069204;28;20185;-79
2024/01/19 02:23:58;;;;;;;9.73;4.63;;;;;;;;;;5070980;28;20661;-78
2024/01/19 02:26:24;;;;;;;8.13;3.97;;;;;;;;;;5086103;28;20217;-78
2024/01/19 02:28:51;;;;;;;12.80;4.20;;;;;;;;;;5068574;28;20201;-78
2024/01/19 02:31:17;;;;;;;7.83;4.07;;;;;;;;;;5065022;28;20284;-79
2024/01/19 02:33:43;;;;;;;7.07;3.67;;;;;;;;;;5070082;28;20291;-78
2024/01/19 02:36:09;;;;;;;6.60;3.53;;;;;;;;;;5070697;28;20263;-78
2024/01/19 02:38:35;;;;;;;6.83;4.30;;;;;;;;;;5086373;28;20175;-79
2024/01/19 02:41:01;;;;;;;13.33;4.30;;;;;;;;;;5069762;28;20269;-78
2024/01/19 02:43:27;;;;;;;7.30;4.50;;;;;;;;;;5067017;28;20219;-79
2024/01/19 02:45:53;;;;;;;6.40;3.73;;;;;;;;;;5064577;28;20232;-79
2024/01/19 02:48:19;;;;;;;7.97;4.40;;;;;;;;;;5069235;28;20178;-78
2024/01/19 02:50:45;;;;;;;6.57;3.13;;;;;;;;;;5068836;28;20186;-79
2024/01/19 02:53:11;;;;;;;8.00;4.13;;;;;;;;;;5080956;28;20234;-79
2024/01/19 02:55:37;;;;;;;7.33;3.67;;;;;;;;;;5083574;28;20207;-78
2024/01/19 02:58:03;;;;;;;7.73;3.63;;;;;;;;;;5085699;28;20212;-78
2024/01/19 03:00:29;;;;;;;7.30;4.10;;;;;;;;;;5086441;28;20270;-78
2024/01/19 03:02:55;;;;;;;7.20;3.73;;;;;;;;;;5081678;28;20213;-79
2024/01/19 03:05:21;;;;;;;6.60;3.40;;;;;;;;;;5069985;28;20221;-78
2024/01/19 03:07:47;;;;;;;4.73;2.97;;;;;;;;;;5100206;28;20237;-78
2024/01/19 03:10:13;;;;;;;4.37;2.80;;;;;;;;;;5084066;28;20260;-79
2024/01/19 03:12:39;;;;;;;7.03;3.40;;;;;;;;;;5084132;28;20214;-78
2024/01/19 03:15:05;;;;;;;6.77;3.73;;;;;;;;;;5084229;28;20498;-79
2024/01/19 03:17:33;;;;;;;8.30;3.13;;;;;;;;;;5088488;28;20258;-80
2024/01/19 03:19:59;;;;;;;5.70;3.13;;;;;;;;;;5084432;28;20234;-79
2024/01/19 03:22:25;;;;;;;7.07;2.60;;;;;;;;;;5079003;28;20212;-79
2024/01/19 03:24:51;;;;;;;9.03;3.30;;;;;;;;;;5073808;28;20228;-79
2024/01/19 03:27:17;;;;;;;5.83;2.93;;;;;;;;;;5070875;28;20183;-80
2024/01/19 03:29:44;;;;;;;4.07;2.80;;;;;;;;;;5072826;28;20736;-79
2024/01/19 03:32:10;;;;;;;4.90;2.60;;;;;;;;;;5071118;28;20228;-79
2024/01/19 03:34:36;;;;;;;10.43;2.67;;;;;;;;;;5073632;28;20699;-79
2024/01/19 03:37:03;;;;;;;10.73;2.60;;;;;;;;;;5076004;28;20297;-80
2024/01/19 03:39:32;;;;;;;4.07;2.07;;;;;;;;;;5090491;28;20216;-78
2024/01/19 03:41:59;;;;;;;6.20;3.03;;;;;;;;;;5060919;28;20219;-79
2024/01/19 03:44:25;;;;;;;4.93;2.40;;;;;;;;;;5066742;28;20225;-79
2024/01/19 03:46:51;;;;;;;6.83;2.53;;;;;;;;;;5067421;28;20842;-80
2024/01/19 03:49:17;;;;;;;6.93;2.47;;;;;;;;;;5068130;28;20207;-80
2024/01/19 03:51:59;;;;;;;7.27;2.70;;;;;;;;;;5068322;28;20273;-79
2024/01/19 03:54:25;;;;;;;4.67;2.43;;;;;;;;;;5064859;28;20669;-80
2024/01/19 03:56:51;;;;;;;5.60;2.77;;;;;;;;;;5076482;28;20240;-79
2024/01/19 03:59:17;;;;;;;6.40;2.80;;;;;;;;;;5090576;28;20214;-80
2024/01/19 04:01:43;;;;;;;5.90;2.70;;;;;;;;;;5110057;28;20211;-80
2024/01/19 04:04:09;;;;;;;5.90;2.97;;;;;;;;;;5090364;28;20214;-80
2024/01/19 04:06:35;;;;;;;5.73;2.87;;;;;;;;;;5088905;28;20206;-80
2024/01/19 04:09:01;;;;;;;5.43;3.03;;;;;;;;;;5081739;28;20656;-80
2024/01/19 04:11:28;;;;;;;11.53;2.53;;;;;;;;;;5061338;28;20203;-79
2024/01/19 04:13:54;;;;;;;5.17;2.70;;;;;;;;;;5066369;28;20699;-79
2024/01/19 04:16:20;;;;;;;4.67;2.50;;;;;;;;;;5071595;28;20203;-79
2024/01/19 04:18:47;;;;;;;5.00;3.00;;;;;;;;;;5069908;28;20847;-79
2024/01/19 04:21:13;;;;;;;4.53;2.60;;;;;;;;;;5070084;28;20620;-80
2024/01/19 04:23:40;;;;;;;7.70;2.90;;;;;;;;;;5069269;28;20282;-79
2024/01/19 04:26:06;;;;;;;6.17;3.10;;;;;;;;;;5088356;28;20201;-79
2024/01/19 04:28:32;;;;;;;6.80;2.80;;;;;;;;;;5075243;28;20271;-80
2024/01/19 04:30:58;;;;;;;6.80;3.13;;;;;;;;;;5074233;28;20245;-80
2024/01/19 04:33:24;;;;;;;5.17;3.10;;;;;;;;;;5076185;28;20236;-80
2024/01/19 04:35:50;;;;;;;6.10;3.13;;;;;;;;;;5071954;28;20181;-80
2024/01/19 04:38:16;;;;;;;5.37;3.00;;;;;;;;;;5063210;28;20206;-79
2024/01/19 04:40:42;;;;;;;4.50;2.87;;;;;;;;;;5091151;28;20512;-78
2024/01/19 04:43:08;;;;;;;7.70;3.03;;;;;;;;;;5081516;28;20204;-80
2024/01/19 04:45:34;;;;;;;3.70;2.43;;;;;;;;;;5076184;28;20255;-79
2024/01/19 04:48:00;;;;;;;8.50;2.70;;;;;;;;;;5073232;28;20266;-80
2024/01/19 04:50:25;;;;;;;5.60;2.73;;;;;;;;;;5074813;28;20197;-80
2024/01/19 04:52:52;;;;;;;3.87;2.03;;;;;;;;;;5090672;28;20218;-79
2024/01/19 04:55:18;;;;;;;7.13;2.50;;;;;;;;;;5080508;28;20250;-80
2024/01/19 04:57:45;;;;;;;6.00;2.37;;;;;;;;;;5083923;28;20299;-79
2024/01/19 05:00:11;;;;;;;8.20;2.57;;;;;;;;;;5080892;28;20182;-78
2024/01/19 05:02:37;;;;;;;4.03;2.30;;;;;;;;;;5079968;28;20201;-81
2024/01/19 05:05:03;;;;;;;5.57;1.83;;;;;;;;;;5072755;28;20242;-79
2024/01/19 05:07:29;;;;;;;3.83;2.20;;;;;;;;;;5062572;28;20211;-80
2024/01/19 05:09:57;;;;;;;6.00;2.30;;;;;;;;;;5080565;28;20269;-79
2024/01/19 05:12:23;;;;;;;8.13;2.43;;;;;;;;;;5079717;28;20771;-80
2024/01/19 05:14:49;;;;;;;5.50;2.30;;;;;;;;;;5077115;28;20184;-79
2024/01/19 05:17:15;;;;;;;2.77;1.60;;;;;;;;;;5068634;28;20811;-80
2024/01/19 05:19:41;;;;;;;3.37;2.10;;;;;;;;;;5050025;28;20900;-80
2024/01/19 05:22:07;;;;;;;6.00;2.00;;;;;;;;;;5078181;28;20316;-79
2024/01/19 05:24:33;;;;;;;7.80;2.30;;;;;;;;;;5051813;28;20327;-79
2024/01/19 05:26:59;;;;;;;10.27;2.43;;;;;;;;;;5079980;28;20189;-79
2024/01/19 05:29:25;;;;;;;2.87;2.10;;;;;;;;;;5077060;28;20210;-79
2024/01/19 05:31:51;;;;;;;3.23;1.93;;;;;;;;;;5082073;28;20714;-79
2024/01/19 05:34:17;;;;;;;5.20;1.90;;;;;;;;;;5063046;28;20204;-79
2024/01/19 05:36:43;;;;;;;3.80;2.20;;;;;;;;;;5059505;28;20198;-79
2024/01/19 05:39:09;;;;;;;4.30;2.10;;;;;;;;;;5077695;28;20317;-78
2024/01/19 05:41:35;;;;;;;5.47;1.70;;;;;;;;;;5085029;28;20212;-78
2024/01/19 05:44:01;;;;;;;7.97;2.40;;;;;;;;;;5080040;28;20220;-78
2024/01/19 05:46:27;;;;;;;3.83;1.83;;;;;;;;;;5084366;28;20213;-79
2024/01/19 05:48:53;;;;;;;3.10;1.80;;;;;;;;;;5077273;28;20230;-80
2024/01/19 05:51:19;;;;;;;3.47;1.83;;;;;;;;;;5071751;28;20289;-79
2024/01/19 05:53:45;;;;;;;2.67;1.90;;;;;;;;;;5072839;28;20580;-79
2024/01/19 05:56:11;;;;;;;6.60;2.00;;;;;;;;;;5077719;28;20280;-79
2024/01/19 05:58:37;;;;;;;6.37;1.80;;;;;;;;;;5070262;28;20223;-78
2024/01/19 06:01:04;;;;;;;5.60;2.77;;;;;;;;;;5081944;28;20217;-79
2024/01/19 06:03:33;;;;;;;3.67;1.50;;;;;;;;;;5077612;28;20219;-79
2024/01/19 06:05:59;;;;;;;4.70;2.60;;;;;;;;;;5071114;28;20245;-78
2024/01/19 06:08:25;;;;;;;3.93;1.50;;;;;;;;;;5058910;28;20201;-79
2024/01/19 06:10:51;;;;;;;4.50;1.50;;;;;;;;;;5071463;28;20730;-79
2024/01/19 06:13:17;;;;;;;3.43;1.87;;;;;;;;;;5073397;28;20219;-80
2024/01/19 06:15:43;;;;;;;2.40;1.70;;;;;;;;;;5082204;28;20229;-79
2024/01/19 06:18:09;;;;;;;2.73;1.80;;;;;;;;;;5075310;28;20582;-78
2024/01/19 06:20:40;;;;;;;4.97;1.90;;;;;;;;;;5082702;28;20176;-78
2024/01/19 06:23:06;;;;;;;7.03;1.87;;;;;;;;;;5069180;28;20316;-78
2024/01/19 06:25:32;;;;;;;8.37;2.17;;;;;;;;;;5081843;28;20243;-79
2024/01/19 06:27:59;;;;;;;3.83;1.57;;;;;;;;;;5086814;28;20213;-78
2024/01/19 06:30:25;;;;;;;5.13;1.83;;;;;;;;;;5077597;28;20772;-78
2024/01/19 06:32:51;;;;;;;7.30;2.10;;;;;;;;;;5079640;28;20202;-78
2024/01/19 06:35:17;;;;;;;2.47;1.47;;;;;;;;;;5079712;28;20217;-79
2024/01/19 06:37:43;;;;;;;2.30;1.37;;;;;;;;;;5057947;28;20234;-77
2024/01/19 06:40:10;;;;;;;2.80;1.70;;;;;;;;;;5046807;28;20300;-77
2024/01/19 06:42:36;;;;;;;4.57;1.70;;;;;;;;;;5081186;28;20216;-81
2024/01/19 06:45:03;;;;;;;5.47;2.40;;;;;;;;;;5077172;28;20244;-79
2024/01/19 06:47:29;;;;;;;6.00;1.57;;;;;;;;;;5057580;28;20274;-77
2024/01/19 06:49:55;;;;;;;5.00;1.97;;;;;;;;;;5076158;28;20629;-78
2024/01/19 06:52:21;;;;;;;2.17;1.57;;;;;;;;;;5078132;28;20290;-77
2024/01/19 06:54:47;;;;;;;3.17;1.97;;;;;;;;;;5080814;28;20223;-79
2024/01/19 06:57:13;;;;;;;6.70;2.00;;;;;;;;;;5072244;28;20191;-78
2024/01/19 06:59:39;;;;;;;3.87;1.57;;;;;;;;;;5074106;28;20209;-76
2024/01/19 07:02:05;;;;;;;3.07;1.67;;;;;;;;;;5069507;28;20232;-78
2024/01/19 07:04:31;;;;;;;7.23;2.73;;;;;;;;;;5076799;28;20303;-78
2024/01/19 07:06:57;;;;;;;3.63;1.93;;;;;;;;;;5044646;28;20214;-79
2024/01/19 07:09:23;;;;;;;4.03;2.07;;;;;;;;;;5079399;28;20172;-78
2024/01/19 07:11:49;;;;;;;3.57;2.37;;;;;;;;;;5089530;28;20204;-77
2024/01/19 07:14:15;;;;;;;4.53;1.73;;;;;;;;;;5055526;28;20694;-78
2024/01/19 07:16:43;;;;;;;3.43;1.77;;;;;;;;;;5082306;28;20298;-78
2024/01/19 07:19:09;;;;;;;3.57;2.20;;;;;;;;;;5055596;28;20225;-78
2024/01/19 07:21:39;;;;;;;5.60;2.27;;;;;;;;;;5075323;28;20207;-78
2024/01/19 07:24:06;;;;;;;4.17;1.83;;;;;;;;;;5089226;28;20191;-75
2024/01/19 07:26:32;;;;;;;3.37;2.20;;;;;;;;;;5090463;28;20217;-78
2024/01/19 07:28:58;;;;;;;5.60;2.47;;;;;;;;;;5091472;28;20343;-76
2024/01/19 07:31:24;;;;;;;2.97;1.70;;;;;;;;;;5066735;28;20751;-77
2024/01/19 07:33:50;;;;;;;3.10;2.10;;;;;;;;;;5081713;28;20201;-76
2024/01/19 07:36:16;;;;;;;4.80;2.07;;;;;;;;;;5077108;28;20239;-77
2024/01/19 07:38:42;;;;;;;4.07;2.57;;;;;;;;;;5079691;28;20253;-74
2024/01/19 07:41:08;;;;;;;3.33;1.70;;;;;;;;;;5067677;28;20197;-75
2024/01/19 07:43:35;;;;;;;4.40;2.23;;;;;;;;;;5071425;28;20215;-75
2024/01/19 07:46:01;;;;;;;5.40;2.40;;;;;;;;;;5079421;28;20218;-75
2024/01/19 07:48:27;;;;;;;5.37;2.53;;;;;;;;;;5074764;28;20562;-75
2024/01/19 07:50:53;;;;;;;3.40;2.07;;;;;;;;;;5081443;28;20180;-75
2024/01/19 07:53:19;;;;;;;7.00;2.17;;;;;;;;;;5057787;28;20246;-74
2024/01/19 07:55:44;;;;;;;8.03;3.07;;;;;;;;;;5079687;28;20332;-74
2024/01/19 07:58:10;;;;;;;5.10;2.10;;;;;;;;;;5076804;28;20213;-72
2024/01/19 08:00:36;;;;;;;3.33;2.37;;;;;;;;;;5078521;28;20221;-75
2024/01/19 08:03:03;;;;;;;6.77;2.80;;;;;;;;;;5080574;28;20297;-75
2024/01/19 08:05:29;;;;;;;5.77;2.93;;;;;;;;;;5080393;28;20812;-75
2024/01/19 08:07:55;;;;;;;5.27;3.17;;;;;;;;;;5079994;28;20209;-76
2024/01/19 08:10:21;;;;;;;2.90;2.60;;;;;;;;;;5078349;28;20203;-75
2024/01/19 08:12:47;;;;;;;6.17;2.40;;;;;;;;;;5078849;28;20299;-75
2024/01/19 08:15:13;;;;;;;6.83;2.07;;;;;;;;;;5078184;28;20210;-74
2024/01/19 08:17:39;;;;;;;7.13;3.03;;;;;;;;;;5079993;28;20202;-75
2024/01/19 08:20:05;;;;;;;5.83;2.80;;;;;;;;;;5071633;28;20250;-75
2024/01/19 08:22:31;;;;;;;4.50;2.80;;;;;;;;;;5075579;28;20215;-75
2024/01/19 08:24:58;;;;;;;4.37;2.50;;;;;;;;;;5076229;28;20223;-75
2024/01/19 08:27:24;;;;;;;8.03;2.67;;;;;;;;;;5070876;28;20262;-75
2024/01/19 08:29:50;;;;;;;8.33;2.47;;;;;;;;;;5065930;28;20201;-74
2024/01/19 08:32:16;;;;;;;10.80;3.47;;;;;;;;;;5079983;28;20249;-74
2024/01/19 08:34:45;;;;;;;7.97;3.07;;;;;;;;;;5059573;28;20219;-74
2024/01/19 08:37:11;;;;;;;3.13;2.30;;;;;;;;;;5081587;28;20816;-75
2024/01/19 08:39:38;;;;;;;5.33;3.07;;;;;;;;;;5079908;28;20214;-75
2024/01/19 08:42:04;;;;;;;5.87;3.30;;;;;;;;;;5081850;28;20198;-75
2024/01/19 08:44:30;;;;;;;6.20;3.50;;;;;;;;;;5059325;28;20310;-75
2024/01/19 08:46:57;;;;;;;10.77;3.40;;;;;;;;;;5060404;28;20221;-76
2024/01/19 08:49:24;;;;;;;5.50;3.23;;;;;;;;;;5075975;28;20276;-75
2024/01/19 08:51:51;;;;;;;5.63;3.47;;;;;;;;;;5077528;28;20795;-75
2024/01/19 08:54:18;;;;;;;7.23;3.13;;;;;;;;;;5076277;28;20213;-75
2024/01/19 08:56:44;;;;;;;7.83;3.43;;;;;;;;;;5080245;28;20629;-75
2024/01/19 08:59:12;;;;;;;6.67;3.00;;;;;;;;;;5076527;28;20310;-75
2024/01/19 09:01:38;;;;;;;5.53;3.23;;;;;;;;;;5077243;28;20230;-75
2024/01/19 09:04:04;;;;;;;6.37;3.40;;;;;;;;;;5075546;28;20207;-76
2024/01/19 09:06:30;;;;;;;8.23;2.90;;;;;;;;;;5065355;28;20579;-75
2024/01/19 09:09:03;;;;;;;8.00;3.20;;;;;;;;;;5061991;28;20174;-76
2024/01/19 09:11:29;;;;;;;4.43;3.13;;;;;;;;;;5076443;28;20287;-75
2024/01/19 09:13:55;;;;;;;8.03;3.67;;;;;;;;;;5057802;28;20214;-75
2024/01/19 09:16:21;;;;;;;7.07;2.93;;;;;;;;;;5078567;28;20268;-76
2024/01/19 09:18:47;;;;;;;8.23;3.40;;;;;;;;;;5076369;28;20624;-75
2024/01/19 09:21:19;;;;;;;7.23;3.20;;;;;;;;;;5077485;28;20216;-76
2024/01/19 09:23:45;;;;;;;5.40;3.03;;;;;;;;;;5077598;28;20204;-75
2024/01/19 09:26:18;;;;;;;7.70;4.30;;;;;;;;;;5071742;28;20387;-75
2024/01/19 09:28:44;;;;;;;7.13;4.10;;;;;;;;;;5070750;28;20294;-76
2024/01/19 09:31:10;;;;;;;6.83;3.10;;;;;;;;;;5078060;28;20213;-75
2024/01/19 09:33:36;;;;;;;8.73;3.70;;;;;;;;;;5079136;28;20604;-75
2024/01/19 09:36:02;;;;;;;6.70;3.53;;;;;;;;;;5080635;28;20179;-75
2024/01/19 09:38:28;;;;;;;7.10;3.77;;;;;;;;;;5066081;28;20214;-74
2024/01/19 09:41:01;;;;;;;4.80;3.07;;;;;;;;;;5077528;28;20763;-75
2024/01/19 09:43:28;;;;;;;7.60;3.00;;;;;;;;;;5072235;28;20630;-75
2024/01/19 09:45:54;;;;;;;7.23;3.20;;;;;;;;;;5077228;28;20222;-76
2024/01/19 09:48:24;;;;;;;7.07;3.40;;;;;;;;;;5076572;28;20236;-75
2024/01/19 09:50:55;;;;;;;6.40;3.40;;;;;;;;;;5058148;28;20184;-75
2024/01/19 09:53:32;;;;;;;6.90;3.03;;;;;;;;;;5077952;28;20745;-74
2024/01/19 09:55:58;;;;;;;6.07;3.53;;;;;;;;;;5073211;28;20289;-75
2024/01/19 09:58:25;;;;;;;8.77;3.80;;;;;;;;;;5056321;28;20740;-75
2024/01/19 10:00:51;;;;;;;7.37;4.17;;;;;;;;;;5084552;28;20251;-75
2024/01/19 10:03:17;;;;;;;8.00;3.13;;;;;;;;;;5095875;28;20198;-75
2024/01/19 10:05:44;;;;;;;5.80;3.83;;;;;;;;;;5093432;28;20247;-74
2024/01/19 10:08:12;;;;;;;5.90;3.63;;;;;;;;;;5058691;28;20210;-75
2024/01/19 10:10:41;;;;;;;7.90;3.20;;;;;;;;;;5057907;28;20217;-75
2024/01/19 10:13:07;;;;;;;9.47;4.10;;;;;;;;;;5070931;28;20213;-75
2024/01/19 10:15:33;;;;;;;7.80;3.77;;;;;;;;;;5065441;28;20211;-75
2024/01/19 10:18:00;;;;;;;8.00;4.17;;;;;;;;;;5065515;28;20719;-75
2024/01/19 10:20:26;;;;;;;6.30;3.37;;;;;;;;;;5083089;28;20207;-75
2024/01/19 10:22:52;;;;;;;11.37;3.67;;;;;;;;;;5066210;28;20208;-75
2024/01/19 10:25:19;;;;;;;7.00;3.93;;;;;;;;;;5083598;28;20861;-75
2024/01/19 10:27:52;;;;;;;6.40;3.67;;;;;;;;;;5067872;28;20225;-76
2024/01/19 10:30:18;;;;;;;8.57;3.77;;;;;;;;;;5075418;28;20188;-74
2024/01/19 10:32:45;;;;;;;7.73;3.40;;;;;;;;;;5073799;28;20206;-75
2024/01/19 10:35:15;;;;;;;5.73;3.10;;;;;;;;;;5072656;28;20215;-76
2024/01/19 10:37:42;;;;;;;7.97;3.60;;;;;;;;;;5054003;28;20217;-76
2024/01/19 10:40:20;;;;;;;11.93;3.70;;;;;;;;;;5073999;28;20262;-75
2024/01/19 10:42:47;;;;;;;7.13;3.47;;;;;;;;;;5074938;28;20719;-75
2024/01/19 10:45:35;;;;;;;11.60;3.83;;;;;;;;;;5060951;28;20203;-76
2024/01/19 10:48:03;;;;;;;6.63;3.40;;;;;;;;;;5078791;28;20181;-76
2024/01/19 10:50:29;;;;;;;5.77;3.20;;;;;;;;;;5057878;28;20202;-76
2024/01/19 10:52:59;;;;;;;10.67;4.37;;;;;;;;;;5065206;28;20215;-76
2024/01/19 10:55:26;;;;;;;8.80;4.00;;;;;;;;;;5075570;28;20648;-76
2024/01/19 10:57:53;;;;;;;7.17;3.43;;;;;;;;;;5074604;28;20212;-76
2024/01/19 11:00:20;;;;;;;6.77;3.70;;;;;;;;;;5075354;28;20241;-75
2024/01/19 11:02:48;;;;;;;6.10;3.47;;;;;;;;;;5076052;28;20597;-76
2024/01/19 11:05:15;;;;;;;6.20;3.07;;;;;;;;;;5078776;28;20220;-77
2024/01/19 11:07:41;;;;;;;6.47;3.70;;;;;;;;;;5066496;28;20247;-76
2024/01/19 11:10:07;;;;;;;5.30;3.50;;;;;;;;;;5062498;28;20718;-75
2024/01/19 11:12:37;;;;;;;7.00;3.53;;;;;;;;;;5078848;28;20369;-76
2024/01/19 11:15:06;;;;;;;5.93;3.07;;;;;;;;;;5060160;28;20192;-75
2024/01/19 11:17:32;;;;;;;10.33;3.57;;;;;;;;;;5078718;28;20216;-76
2024/01/19 11:19:58;;;;;;;10.13;3.97;;;;;;;;;;5080269;28;20914;-74
2024/01/19 11:22:25;;;;;;;5.87;3.40;;;;;;;;;;5078850;28;20215;-76
2024/01/19 11:24:52;;;;;;;5.17;3.10;;;;;;;;;;5078168;28;20308;-75
2024/01/19 11:27:28;;;;;;;5.60;3.20;;;;;;;;;;5080573;28;20189;-75
2024/01/19 11:30:02;;;;;;;5.33;3.20;;;;;;;;;;5078762;28;20189;-76
2024/01/19 11:32:28;;;;;;;6.17;3.10;;;;;;;;;;5079683;28;20239;-75
2024/01/19 11:34:54;;;;;;;5.17;3.03;;;;;;;;;;5078714;28;20363;-76
2024/01/19 11:37:39;;;;;;;6.57;3.30;;;;;;;;;;5081327;28;20680;-77
2024/01/19 11:40:06;;;;;;;5.97;3.20;;;;;;;;;;5055484;28;20228;-77
2024/01/19 11:42:35;;;;;;;7.23;3.00;;;;;;;;;;5077684;28;20594;-76
2024/01/19 11:45:01;;;;;;;4.20;2.60;;;;;;;;;;5064301;28;20277;-76
2024/01/19 11:47:36;;;;;;;8.37;3.43;;;;;;;;;;5079459;28;20206;-77
2024/01/19 11:50:03;;;;;;;4.63;2.93;;;;;;;;;;5076256;28;20279;-77
2024/01/19 11:52:30;;;;;;;8.33;3.00;;;;;;;;;;5072625;28;20207;-76
2024/01/19 11:54:56;;;;;;;12.57;3.30;;;;;;;;;;5069676;28;20226;-77
2024/01/19 11:57:24;;;;;;;5.00;2.87;;;;;;;;;;5078805;28;20230;-75
2024/01/19 11:59:51;;;;;;;6.60;2.60;;;;;;;;;;5078945;28;20174;-75
2024/01/19 12:02:27;;;;;;;11.83;3.00;;;;;;;;;;5074706;28;20209;-75
2024/01/19 12:04:54;;;;;;;6.97;3.00;;;;;;;;;;5072383;28;20229;-76
2024/01/19 12:07:22;;;;;;;7.50;2.97;;;;;;;;;;5082449;28;20263;-76
2024/01/19 12:10:08;;;;;;;8.33;3.70;;;;;;;;;;5071050;28;20266;-75
2024/01/19 12:12:34;;;;;;;8.83;3.37;;;;;;;;;;5077501;28;20218;-76
2024/01/19 12:15:05;;;;;;;6.57;3.07;;;;;;;;;;5055744;28;20333;-76
2024/01/19 12:17:31;;;;;;;9.80;2.80;;;;;;;;;;5079756;28;20340;-75
2024/01/19 12:19:57;;;;;;;5.47;2.90;;;;;;;;;;5077295;28;20680;-76
2024/01/19 12:22:23;;;;;;;6.70;2.90;;;;;;;;;;5073846;28;20712;-76
2024/01/19 12:24:49;;;;;;;5.80;2.77;;;;;;;;;;5076900;28;20218;-75
2024/01/19 12:27:21;;;;;;;4.60;2.10;;;;;;;;;;5074867;28;20183;-76
2024/01/19 12:29:47;;;;;;;5.13;2.60;;;;;;;;;;5069863;28;20193;-75
2024/01/19 12:32:14;;;;;;;9.57;3.53;;;;;;;;;;5067549;28;20736;-75
2024/01/19 12:34:40;;;;;;;3.63;2.03;;;;;;;;;;5068296;28;20202;-76
2024/01/19 12:37:06;;;;;;;5.70;2.80;;;;;;;;;;5056054;28;20216;-76
2024/01/19 12:39:32;;;;;;;7.10;2.87;;;;;;;;;;5075144;28;20209;-75
2024/01/19 12:42:05;;;;;;;3.70;2.40;;;;;;;;;;5076409;28;20761;-74
2024/01/19 12:44:34;;;;;;;7.93;3.80;;;;;;;;;;5079109;28;20264;-75
2024/01/19 12:47:00;;;;;;;4.90;2.47;;;;;;;;;;5057262;28;20204;-76
2024/01/19 12:49:26;;;;;;;7.17;2.90;;;;;;;;;;5079053;28;20770;-76
2024/01/19 12:51:52;;;;;;;7.20;2.87;;;;;;;;;;5077060;28;20227;-76
2024/01/19 12:54:19;;;;;;;6.27;2.90;;;;;;;;;;5077039;28;20674;-74
2024/01/19 12:56:45;;;;;;;4.60;2.80;;;;;;;;;;5077803;28;20170;-75
2024/01/19 12:59:19;;;;;;;6.13;2.50;;;;;;;;;;5079380;28;20821;-76
2024/01/19 13:01:54;;;;;;;12.23;2.60;;;;;;;;;;5058080;28;20215;-76
2024/01/19 13:04:20;;;;;;;9.83;2.43;;;;;;;;;;5079774;28;20264;-76
2024/01/19 13:06:47;;;;;;;6.83;3.50;;;;;;;;;;5057363;28;20299;-75
2024/01/19 13:09:17;;;;;;;6.70;2.87;;;;;;;;;;5076799;28;20236;-74
2024/01/19 13:11:43;;;;;;;11.27;3.00;;;;;;;;;;5076787;28;20178;-75
2024/01/19 13:14:09;;;;;;;8.07;2.70;;;;;;;;;;5065652;28;20580;-76
2024/01/19 13:16:54;;;;;;;4.83;2.60;;;;;;;;;;5080092;28;20213;-74
2024/01/19 13:19:20;;;;;;;5.50;2.97;;;;;;;;;;5078997;28;20239;-75
2024/01/19 13:21:48;;;;;;;7.10;2.83;;;;;;;;;;5074853;28;20211;-76
2024/01/19 13:24:14;;;;;;;4.67;2.60;;;;;;;;;;5064177;28;20319;-76
2024/01/19 13:26:40;;;;;;;9.20;3.70;;;;;;;;;;5071479;28;20182;-76
2024/01/19 13:29:06;;;;;;;9.03;3.03;;;;;;;;;;5059485;28;20205;-76
2024/01/19 13:31:32;;;;;;;6.00;2.50;;;;;;;;;;5080296;28;20213;-76
2024/01/19 13:34:00;;;;;;;7.30;2.70;;;;;;;;;;5055356;28;20844;-75
2024/01/19 13:36:26;;;;;;;10.63;3.00;;;;;;;;;;5080583;28;20705;-76
2024/01/19 13:38:52;;;;;;;6.77;3.43;;;;;;;;;;5072538;28;20192;-76
2024/01/19 13:41:18;;;;;;;7.77;3.00;;;;;;;;;;5057318;28;20206;-74
2024/01/19 13:43:45;;;;;;;11.57;3.43;;;;;;;;;;5076688;28;20241;-74
2024/01/19 13:46:14;;;;;;;8.03;2.77;;;;;;;;;;5075455;28;20216;-75
2024/01/19 13:48:40;;;;;;;5.03;3.63;;;;;;;;;;5075794;28;20288;-75
2024/01/19 13:51:06;;;;;;;9.40;3.97;;;;;;;;;;5077990;28;20178;-75
2024/01/19 13:53:32;;;;;;;3.37;2.80;;;;;;;;;;5075877;28;20741;-75
2024/01/19 13:55:58;;;;;;;9.90;2.87;;;;;;;;;;5074357;28;20687;-75
2024/01/19 13:58:24;;;;;;;7.00;3.03;;;;;;;;;;5088661;28;20234;-76
2024/01/19 14:00:50;;;;;;;7.27;2.97;;;;;;;;;;5083561;28;20216;-76
2024/01/19 14:03:18;;;;;;;10.33;3.57;;;;;;;;;;5087259;28;20207;-76
2024/01/19 14:05:46;;;;;;;12.30;4.03;;;;;;;;;;5082463;28;20353;-75
2024/01/19 14:08:12;;;;;;;11.97;3.63;;;;;;;;;;5043671;28;20587;-76
2024/01/19 14:10:38;;;;;;;6.57;3.47;;;;;;;;;;5054732;28;20202;-76
2024/01/19 14:13:04;;;;;;;6.27;3.50;;;;;;;;;;5075106;28;20222;-76
2024/01/19 14:15:30;;;;;;;6.37;3.40;;;;;;;;;;5078621;28;20228;-75
2024/01/19 14:17:56;;;;;;;6.80;2.97;;;;;;;;;;5074417;28;20196;-76
2024/01/19 14:20:22;;;;;;;8.87;3.50;;;;;;;;;;5058411;28;20199;-76
2024/01/19 14:22:48;;;;;;;5.17;3.40;;;;;;;;;;5075177;28;20222;-75
2024/01/19 14:25:14;;;;;;;6.37;3.90;;;;;;;;;;5075107;28;20709;-75
2024/01/19 14:27:41;;;;;;;10.47;3.90;;;;;;;;;;5074443;28;20299;-75
2024/01/19 14:30:08;;;;;;;7.40;3.50;;;;;;;;;;5057004;28;20186;-76
2024/01/19 14:32:34;;;;;;;5.87;3.37;;;;;;;;;;5075751;28;20309;-76
2024/01/19 14:35:00;;;;;;;6.90;3.77;;;;;;;;;;5066694;28;20845;-75
2024/01/19 14:37:26;;;;;;;8.10;3.53;;;;;;;;;;5074358;28;20780;-75
2024/01/19 14:39:52;;;;;;;7.47;3.90;;;;;;;;;;5073305;28;20312;-75